Main page
METAR-TAF:

METAR-TAF

Airports :

Colmenar Viejo, Spain

latitude: 40-39N, longitude: 003-44W, elevation: -999 m

Current weather observation

The report was made 5 hours and 33 minutes ago, at 18:00 UTC
Calm wind
Temperature 10°C
Humidity 100%
Pressure 1025 hPa
Visibility: 0200 m
fog

METAR: LECV 281800Z 00000KT 0200 FG VV001 10/10 Q1025

Time: 00:33 (23:33 UTC)

Forecast

The report was made 6 hours and 33 minutes ago, at 17:00 UTC
Forecast valid from 28 at 18 UTC to 29 at 18 UTC
Wind 4 kt from variable directions
Visibility: 0100 m
at a height of 100 ft
fog
Probability 30% :
Temporary
from 29 at 10 UTC to 29 at 12 UTC
Visibility: 2000 m
Overcast at a height of 500 ft
mist

TAF: LECV 281700Z 2818/2918 VRB04KT 0100 FG VV001 TX14/2915Z TN07/2906Z PROB30 TEMPO 2910/2912 2000 BR OVC005

Weather observations and forecasts of more than 4000 airports (METAR and TAF reports).

The available stations are represented by yellow and red dots on the map.

Hover mouse over dot to see the name of the station.

Then click to see weather observations and forecasts.

To change the map : click on the green buttons with a black cross to zoom in, on the green button with a dash to zoom out, or on the green arrows for adjacent maps.


METAR-TAF: